createdAt,value
2023-05-01T00:00:04.166Z,6.1
2023-05-01T00:05:00.949Z,6.8
2023-05-01T00:10:01.222Z,4.9
2023-05-01T00:15:00.594Z,8.0
2023-05-01T00:20:01.085Z,5.2
2023-05-01T00:25:01.013Z,6.0
2023-05-01T00:30:00.885Z,5.9
2023-05-01T00:35:00.953Z,5.9
2023-05-01T00:40:02.284Z,6.1
2023-05-01T00:45:01.499Z,6.3
2023-05-01T00:50:02.386Z,5.2
2023-05-01T00:55:00.605Z,5.3
2023-05-01T01:00:00.737Z,5.7
2023-05-01T01:05:01.239Z,5.3
2023-05-01T01:10:01.673Z,5.7
2023-05-01T01:15:00.919Z,4.7
2023-05-01T01:20:00.888Z,4.8
2023-05-01T01:25:02.677Z,4.9
2023-05-01T01:30:01.277Z,4.6
2023-05-01T01:35:00.717Z,3.6
2023-05-01T01:40:01.660Z,8.1
2023-05-01T01:45:01.326Z,7.2
2023-05-01T01:50:02.616Z,5.4
2023-05-01T01:55:02.135Z,5.1
2023-05-01T02:00:02.071Z,5.4
2023-05-01T02:05:01.452Z,7.8
2023-05-01T02:10:00.885Z,5.7
2023-05-01T02:15:01.473Z,4.7
2023-05-01T02:20:01.595Z,5.1
2023-05-01T02:25:01.892Z,6.0
2023-05-01T02:30:01.822Z,6.3
2023-05-01T02:35:00.788Z,4.6
2023-05-01T02:40:00.824Z,5.7
2023-05-01T02:45:01.067Z,8.5
2023-05-01T02:50:02.290Z,6.4
2023-05-01T02:55:01.180Z,5.1
2023-05-01T03:00:00.987Z,7.6
2023-05-01T03:05:03.198Z,6.4
2023-05-01T03:10:03.203Z,7.2
2023-05-01T03:15:03.419Z,9.3
2023-05-01T03:20:01.986Z,7.4
2023-05-01T03:25:01.564Z,6.5
2023-05-01T03:30:03.555Z,8.8
2023-05-01T03:35:03.264Z,6.9
2023-05-01T03:40:01.758Z,7.1
2023-05-01T03:45:01.091Z,6.3
2023-05-01T03:50:03.505Z,9.8
2023-05-01T03:55:00.710Z,5.2
2023-05-01T04:00:03.981Z,8.3
2023-05-01T04:05:00.954Z,9.2
2023-05-01T04:10:00.957Z,10.3
2023-05-01T04:15:00.871Z,7.3
2023-05-01T04:20:00.871Z,8.4
2023-05-01T04:25:00.849Z,7.3
2023-05-01T04:30:00.888Z,7.0
2023-05-01T04:35:01.349Z,9.7
2023-05-01T21:40:00.740Z,28.8
2023-05-01T21:45:00.285Z,27.0
2023-05-01T21:50:00.751Z,26.2
2023-05-01T21:55:00.316Z,18.8
2023-05-01T22:00:00.615Z,19.3
2023-05-01T22:05:00.293Z,18.6
2023-05-01T22:10:00.650Z,17.5
2023-05-01T22:15:00.236Z,18.1
2023-05-01T22:20:00.540Z,18.1
2023-05-01T22:25:00.358Z,19.5
2023-05-01T22:30:00.578Z,20.3
2023-05-01T22:35:00.248Z,18.2
2023-05-01T22:40:00.871Z,19.3
2023-05-01T22:45:00.340Z,16.9
2023-05-01T22:50:00.739Z,18.8
2023-05-01T22:55:00.343Z,20.9
2023-05-01T23:00:00.945Z,19.6
2023-05-01T23:05:00.341Z,20.1
2023-05-01T23:10:00.781Z,23.3
2023-05-01T23:15:00.329Z,21.4
2023-05-01T23:20:00.622Z,25.3
2023-05-01T23:25:00.220Z,21.8
2023-05-01T23:30:00.881Z,23.4
2023-05-01T23:35:00.303Z,25.4
2023-05-01T23:40:00.586Z,20.9
2023-05-01T23:45:00.329Z,22.6
2023-05-01T23:50:00.647Z,18.1
2023-05-01T23:55:00.318Z,20.1
